sensor_id;sensor_type;location;lat;lon;timestamp;P1;durP1;ratioP1;P2;durP2;ratioP2
71366;SDS011;60030;52.274;8.040;2023-03-17T00:00:19;5.80;;;3.33;;
71366;SDS011;60030;52.274;8.040;2023-03-17T00:02:47;3.80;;;2.77;;
71366;SDS011;60030;52.274;8.040;2023-03-17T00:05:20;3.97;;;2.80;;
71366;SDS011;60030;52.274;8.040;2023-03-17T00:07:49;5.20;;;3.10;;
71366;SDS011;60030;52.274;8.040;2023-03-17T00:10:20;4.63;;;2.83;;
71366;SDS011;60030;52.274;8.040;2023-03-17T00:12:49;3.80;;;2.73;;
71366;SDS011;60030;52.274;8.040;2023-03-17T00:15:19;4.10;;;2.90;;
71366;SDS011;60030;52.274;8.040;2023-03-17T00:17:47;3.57;;;2.50;;
71366;SDS011;60030;52.274;8.040;2023-03-17T00:20:20;4.97;;;2.77;;
71366;SDS011;60030;52.274;8.040;2023-03-17T00:22:49;6.70;;;2.63;;
71366;SDS011;60030;52.274;8.040;2023-03-17T00:25:22;4.23;;;3.03;;
71366;SDS011;60030;52.274;8.040;2023-03-17T00:27:55;4.17;;;2.90;;
71366;SDS011;60030;52.274;8.040;2023-03-17T00:30:26;3.80;;;2.63;;
71366;SDS011;60030;52.274;8.040;2023-03-17T00:32:54;4.00;;;2.80;;
71366;SDS011;60030;52.274;8.040;2023-03-17T00:35:23;4.00;;;2.80;;
71366;SDS011;60030;52.274;8.040;2023-03-17T00:37:53;7.03;;;2.60;;
71366;SDS011;60030;52.274;8.040;2023-03-17T00:40:24;4.73;;;2.57;;
71366;SDS011;60030;52.274;8.040;2023-03-17T00:42:53;4.47;;;2.73;;
71366;SDS011;60030;52.274;8.040;2023-03-17T00:45:21;3.20;;;2.40;;
71366;SDS011;60030;52.274;8.040;2023-03-17T00:47:49;4.17;;;2.67;;
71366;SDS011;60030;52.274;8.040;2023-03-17T00:50:20;4.60;;;2.50;;
71366;SDS011;60030;52.274;8.040;2023-03-17T00:52:48;3.30;;;2.23;;
71366;SDS011;60030;52.274;8.040;2023-03-17T00:55:17;3.57;;;2.63;;
71366;SDS011;60030;52.274;8.040;2023-03-17T00:57:47;3.73;;;2.20;;
71366;SDS011;60030;52.274;8.040;2023-03-17T01:00:17;3.73;;;2.40;;
71366;SDS011;60030;52.274;8.040;2023-03-17T01:02:48;3.10;;;2.30;;
71366;SDS011;60030;52.274;8.040;2023-03-17T01:05:16;2.90;;;2.17;;
71366;SDS011;60030;52.274;8.040;2023-03-17T01:07:44;3.57;;;2.17;;
71366;SDS011;60030;52.274;8.040;2023-03-17T01:10:18;3.43;;;2.23;;
71366;SDS011;60030;52.274;8.040;2023-03-17T01:12:50;3.17;;;2.13;;
71366;SDS011;60030;52.274;8.040;2023-03-17T01:15:18;3.50;;;2.33;;
71366;SDS011;60030;52.274;8.040;2023-03-17T01:17:46;2.90;;;2.00;;
71366;SDS011;60030;52.274;8.040;2023-03-17T01:20:15;2.80;;;2.13;;
71366;SDS011;60030;52.274;8.040;2023-03-17T01:22:48;3.63;;;2.20;;
71366;SDS011;60030;52.274;8.040;2023-03-17T01:25:16;3.63;;;1.93;;
71366;SDS011;60030;52.274;8.040;2023-03-17T01:27:45;3.43;;;2.23;;
71366;SDS011;60030;52.274;8.040;2023-03-17T01:30:20;2.83;;;2.10;;
71366;SDS011;60030;52.274;8.040;2023-03-17T01:32:51;5.60;;;2.40;;
71366;SDS011;60030;52.274;8.040;2023-03-17T01:35:18;5.33;;;2.20;;
71366;SDS011;60030;52.274;8.040;2023-03-17T01:37:46;3.67;;;1.97;;
71366;SDS011;60030;52.274;8.040;2023-03-17T01:40:16;3.80;;;2.00;;
71366;SDS011;60030;52.274;8.040;2023-03-17T01:42:48;2.20;;;2.00;;
71366;SDS011;60030;52.274;8.040;2023-03-17T01:48:23;4.57;;;2.00;;
71366;SDS011;60030;52.274;8.040;2023-03-17T01:50:51;3.63;;;2.10;;
71366;SDS011;60030;52.274;8.040;2023-03-17T01:53:19;4.27;;;2.27;;
71366;SDS011;60030;52.274;8.040;2023-03-17T01:55:48;3.47;;;2.20;;
71366;SDS011;60030;52.274;8.040;2023-03-17T01:58:16;5.00;;;2.10;;
71366;SDS011;60030;52.274;8.040;2023-03-17T02:00:47;2.60;;;1.70;;
71366;SDS011;60030;52.274;8.040;2023-03-17T02:03:14;2.90;;;2.10;;
71366;SDS011;60030;52.274;8.040;2023-03-17T02:05:44;6.03;;;2.07;;
71366;SDS011;60030;52.274;8.040;2023-03-17T02:08:13;4.57;;;2.00;;
71366;SDS011;60030;52.274;8.040;2023-03-17T02:10:42;9.37;;;2.20;;
71366;SDS011;60030;52.274;8.040;2023-03-17T02:13:14;4.53;;;2.13;;
71366;SDS011;60030;52.274;8.040;2023-03-17T02:15:42;3.67;;;1.93;;
71366;SDS011;60030;52.274;8.040;2023-03-17T02:18:13;4.50;;;2.40;;
71366;SDS011;60030;52.274;8.040;2023-03-17T02:24:04;3.40;;;2.10;;
71366;SDS011;60030;52.274;8.040;2023-03-17T02:26:35;3.63;;;2.57;;
71366;SDS011;60030;52.274;8.040;2023-03-17T02:29:03;3.60;;;2.30;;
71366;SDS011;60030;52.274;8.040;2023-03-17T02:31:30;4.87;;;2.43;;
71366;SDS011;60030;52.274;8.040;2023-03-17T02:33:59;3.43;;;2.37;;
71366;SDS011;60030;52.274;8.040;2023-03-17T02:36:26;3.73;;;2.50;;
71366;SDS011;60030;52.274;8.040;2023-03-17T02:38:55;4.17;;;2.73;;
71366;SDS011;60030;52.274;8.040;2023-03-17T02:41:22;4.27;;;2.47;;
71366;SDS011;60030;52.274;8.040;2023-03-17T02:43:50;4.07;;;2.53;;
71366;SDS011;60030;52.274;8.040;2023-03-17T02:46:18;3.37;;;2.40;;
71366;SDS011;60030;52.274;8.040;2023-03-17T02:48:46;5.63;;;2.70;;
71366;SDS011;60030;52.274;8.040;2023-03-17T02:51:13;4.13;;;2.60;;
71366;SDS011;60030;52.274;8.040;2023-03-17T02:53:40;2.83;;;2.30;;
71366;SDS011;60030;52.274;8.040;2023-03-17T02:56:09;4.13;;;2.80;;
71366;SDS011;60030;52.274;8.040;2023-03-17T02:58:36;4.47;;;2.70;;
71366;SDS011;60030;52.274;8.040;2023-03-17T03:01:03;5.53;;;3.07;;
71366;SDS011;60030;52.274;8.040;2023-03-17T03:03:30;4.63;;;2.50;;
71366;SDS011;60030;52.274;8.040;2023-03-17T03:05:58;3.47;;;2.73;;
71366;SDS011;60030;52.274;8.040;2023-03-17T03:08:25;4.00;;;2.53;;
71366;SDS011;60030;52.274;8.040;2023-03-17T03:10:52;4.60;;;2.57;;
71366;SDS011;60030;52.274;8.040;2023-03-17T03:13:21;4.03;;;2.50;;
71366;SDS011;60030;52.274;8.040;2023-03-17T03:15:48;3.23;;;2.50;;
71366;SDS011;60030;52.274;8.040;2023-03-17T03:18:15;3.73;;;2.53;;
71366;SDS011;60030;52.274;8.040;2023-03-17T03:20:43;4.33;;;2.73;;
71366;SDS011;60030;52.274;8.040;2023-03-17T03:23:10;3.87;;;2.50;;
71366;SDS011;60030;52.274;8.040;2023-03-17T03:25:39;3.87;;;2.37;;
71366;SDS011;60030;52.274;8.040;2023-03-17T03:28:06;3.13;;;2.43;;
71366;SDS011;60030;52.274;8.040;2023-03-17T03:30:35;4.07;;;2.30;;
71366;SDS011;60030;52.274;8.040;2023-03-17T03:33:03;3.80;;;2.60;;
71366;SDS011;60030;52.274;8.040;2023-03-17T03:35:30;3.40;;;2.23;;
71366;SDS011;60030;52.274;8.040;2023-03-17T03:37:58;3.13;;;2.60;;
71366;SDS011;60030;52.274;8.040;2023-03-17T03:40:26;3.40;;;2.40;;
71366;SDS011;60030;52.274;8.040;2023-03-17T03:42:53;4.30;;;2.50;;
71366;SDS011;60030;52.274;8.040;2023-03-17T03:45:21;3.33;;;2.30;;
71366;SDS011;60030;52.274;8.040;2023-03-17T03:47:50;3.73;;;1.97;;
71366;SDS011;60030;52.274;8.040;2023-03-17T03:50:17;6.03;;;2.53;;
71366;SDS011;60030;52.274;8.040;2023-03-17T03:52:44;4.77;;;2.47;;
71366;SDS011;60030;52.274;8.040;2023-03-17T03:55:11;2.97;;;2.20;;
71366;SDS011;60030;52.274;8.040;2023-03-17T03:57:38;3.13;;;2.27;;
71366;SDS011;60030;52.274;8.040;2023-03-17T04:00:05;4.00;;;2.50;;
71366;SDS011;60030;52.274;8.040;2023-03-17T04:02:40;3.27;;;2.07;;
71366;SDS011;60030;52.274;8.040;2023-03-17T04:05:10;2.50;;;2.20;;
71366;SDS011;60030;52.274;8.040;2023-03-17T04:07:38;6.03;;;2.37;;
71366;SDS011;60030;52.274;8.040;2023-03-17T04:10:06;4.70;;;2.10;;
71366;SDS011;60030;52.274;8.040;2023-03-17T04:12:34;4.03;;;2.70;;
71366;SDS011;60030;52.274;8.040;2023-03-17T04:15:01;3.53;;;2.10;;
71366;SDS011;60030;52.274;8.040;2023-03-17T04:17:28;3.50;;;2.50;;
71366;SDS011;60030;52.274;8.040;2023-03-17T04:19:55;3.70;;;2.57;;
71366;SDS011;60030;52.274;8.040;2023-03-17T04:22:24;2.80;;;1.97;;
71366;SDS011;60030;52.274;8.040;2023-03-17T04:24:52;3.77;;;2.47;;
71366;SDS011;60030;52.274;8.040;2023-03-17T04:27:19;3.07;;;2.47;;
71366;SDS011;60030;52.274;8.040;2023-03-17T04:29:46;4.40;;;2.33;;
71366;SDS011;60030;52.274;8.040;2023-03-17T04:32:13;4.90;;;2.67;;
71366;SDS011;60030;52.274;8.040;2023-03-17T04:34:40;3.80;;;2.57;;
71366;SDS011;60030;52.274;8.040;2023-03-17T04:37:08;3.43;;;2.17;;
71366;SDS011;60030;52.274;8.040;2023-03-17T04:39:37;3.80;;;2.67;;
71366;SDS011;60030;52.274;8.040;2023-03-17T04:42:05;4.27;;;2.20;;
71366;SDS011;60030;52.274;8.040;2023-03-17T04:44:32;4.13;;;2.37;;
71366;SDS011;60030;52.274;8.040;2023-03-17T04:46:59;2.97;;;2.40;;
71366;SDS011;60030;52.274;8.040;2023-03-17T04:49:26;4.20;;;2.37;;
71366;SDS011;60030;52.274;8.040;2023-03-17T04:51:53;5.20;;;2.40;;
71366;SDS011;60030;52.274;8.040;2023-03-17T04:54:21;3.33;;;2.40;;
71366;SDS011;60030;52.274;8.040;2023-03-17T04:56:49;4.13;;;2.60;;
71366;SDS011;60030;52.274;8.040;2023-03-17T04:59:16;3.73;;;2.47;;
71366;SDS011;60030;52.274;8.040;2023-03-17T05:01:43;5.73;;;2.23;;
71366;SDS011;60030;52.274;8.040;2023-03-17T05:04:11;3.93;;;2.37;;
71366;SDS011;60030;52.274;8.040;2023-03-17T05:06:38;4.17;;;2.53;;
71366;SDS011;60030;52.274;8.040;2023-03-17T05:09:05;5.73;;;2.80;;
71366;SDS011;60030;52.274;8.040;2023-03-17T05:11:32;4.30;;;2.43;;
71366;SDS011;60030;52.274;8.040;2023-03-17T05:14:01;5.77;;;2.83;;
71366;SDS011;60030;52.274;8.040;2023-03-17T05:16:28;3.20;;;2.57;;
71366;SDS011;60030;52.274;8.040;2023-03-17T05:18:55;4.00;;;2.40;;
71366;SDS011;60030;52.274;8.040;2023-03-17T05:21:22;5.07;;;2.47;;
71366;SDS011;60030;52.274;8.040;2023-03-17T05:23:49;4.27;;;2.83;;
71366;SDS011;60030;52.274;8.040;2023-03-17T05:26:16;3.63;;;2.43;;
71366;SDS011;60030;52.274;8.040;2023-03-17T05:28:45;5.83;;;2.60;;
71366;SDS011;60030;52.274;8.040;2023-03-17T05:31:14;4.90;;;2.87;;
71366;SDS011;60030;52.274;8.040;2023-03-17T05:33:43;4.40;;;2.73;;
71366;SDS011;60030;52.274;8.040;2023-03-17T05:36:10;5.17;;;2.97;;
71366;SDS011;60030;52.274;8.040;2023-03-17T05:38:37;5.03;;;2.90;;
71366;SDS011;60030;52.274;8.040;2023-03-17T05:41:04;4.83;;;3.00;;
71366;SDS011;60030;52.274;8.040;2023-03-17T05:43:31;4.50;;;2.97;;
71366;SDS011;60030;52.274;8.040;2023-03-17T05:45:59;4.23;;;2.63;;
71366;SDS011;60030;52.274;8.040;2023-03-17T05:48:27;4.50;;;2.60;;
71366;SDS011;60030;52.274;8.040;2023-03-17T05:50:54;4.50;;;3.10;;
71366;SDS011;60030;52.274;8.040;2023-03-17T05:53:21;5.10;;;2.97;;
71366;SDS011;60030;52.274;8.040;2023-03-17T05:55:48;4.20;;;2.57;;
71366;SDS011;60030;52.274;8.040;2023-03-17T05:58:16;4.10;;;3.03;;
71366;SDS011;60030;52.274;8.040;2023-03-17T06:00:43;7.03;;;3.67;;
71366;SDS011;60030;52.274;8.040;2023-03-17T06:03:10;5.17;;;3.03;;
71366;SDS011;60030;52.274;8.040;2023-03-17T06:05:38;7.57;;;3.40;;
71366;SDS011;60030;52.274;8.040;2023-03-17T06:08:06;5.87;;;3.53;;
71366;SDS011;60030;52.274;8.040;2023-03-17T06:10:33;5.30;;;3.03;;
71366;SDS011;60030;52.274;8.040;2023-03-17T06:13:00;5.63;;;3.00;;
71366;SDS011;60030;52.274;8.040;2023-03-17T06:15:28;5.93;;;3.20;;
71366;SDS011;60030;52.274;8.040;2023-03-17T06:17:56;8.10;;;2.93;;
71366;SDS011;60030;52.274;8.040;2023-03-17T06:20:23;5.03;;;3.10;;
71366;SDS011;60030;52.274;8.040;2023-03-17T06:22:52;5.93;;;2.90;;
71366;SDS011;60030;52.274;8.040;2023-03-17T06:25:19;3.87;;;2.80;;
71366;SDS011;60030;52.274;8.040;2023-03-17T06:27:46;6.63;;;3.33;;
71366;SDS011;60030;52.274;8.040;2023-03-17T06:30:17;5.10;;;2.80;;
71366;SDS011;60030;52.274;8.040;2023-03-17T06:32:46;6.47;;;3.20;;
71366;SDS011;60030;52.274;8.040;2023-03-17T06:35:13;5.73;;;3.20;;
71366;SDS011;60030;52.274;8.040;2023-03-17T06:37:40;5.07;;;3.27;;
71366;SDS011;60030;52.274;8.040;2023-03-17T06:40:09;5.37;;;3.63;;
71366;SDS011;60030;52.274;8.040;2023-03-17T06:42:37;5.67;;;2.67;;
71366;SDS011;60030;52.274;8.040;2023-03-17T06:45:04;8.10;;;3.43;;
71366;SDS011;60030;52.274;8.040;2023-03-17T06:47:33;7.87;;;2.83;;
71366;SDS011;60030;52.274;8.040;2023-03-17T06:50:01;6.80;;;3.37;;
71366;SDS011;60030;52.274;8.040;2023-03-17T06:52:28;4.27;;;2.80;;
71366;SDS011;60030;52.274;8.040;2023-03-17T06:54:55;3.80;;;2.90;;
71366;SDS011;60030;52.274;8.040;2023-03-17T06:57:24;6.17;;;3.27;;
71366;SDS011;60030;52.274;8.040;2023-03-17T06:59:51;5.60;;;3.00;;
71366;SDS011;60030;52.274;8.040;2023-03-17T07:02:18;4.83;;;3.20;;
71366;SDS011;60030;52.274;8.040;2023-03-17T07:04:45;5.13;;;3.17;;
71366;SDS011;60030;52.274;8.040;2023-03-17T07:07:12;4.00;;;2.63;;
71366;SDS011;60030;52.274;8.040;2023-03-17T07:09:39;5.83;;;2.90;;
71366;SDS011;60030;52.274;8.040;2023-03-17T07:12:06;6.63;;;3.20;;
71366;SDS011;60030;52.274;8.040;2023-03-17T07:14:36;4.93;;;2.80;;
71366;SDS011;60030;52.274;8.040;2023-03-17T07:17:03;5.70;;;2.87;;
71366;SDS011;60030;52.274;8.040;2023-03-17T07:19:31;5.90;;;3.00;;
71366;SDS011;60030;52.274;8.040;2023-03-17T07:21:59;5.60;;;2.70;;
71366;SDS011;60030;52.274;8.040;2023-03-17T07:24:26;4.87;;;2.70;;
71366;SDS011;60030;52.274;8.040;2023-03-17T07:26:53;7.03;;;2.40;;
71366;SDS011;60030;52.274;8.040;2023-03-17T07:29:20;4.40;;;2.60;;
71366;SDS011;60030;52.274;8.040;2023-03-17T07:31:48;4.43;;;2.40;;
71366;SDS011;60030;52.274;8.040;2023-03-17T07:34:15;4.60;;;2.13;;
71366;SDS011;60030;52.274;8.040;2023-03-17T07:36:42;4.13;;;2.50;;
71366;SDS011;60030;52.274;8.040;2023-03-17T07:39:09;4.77;;;2.60;;
71366;SDS011;60030;52.274;8.040;2023-03-17T07:41:37;4.37;;;2.60;;
71366;SDS011;60030;52.274;8.040;2023-03-17T07:44:08;3.67;;;2.33;;
71366;SDS011;60030;52.274;8.040;2023-03-17T07:46:35;3.37;;;2.17;;
71366;SDS011;60030;52.274;8.040;2023-03-17T07:49:04;4.53;;;2.40;;
71366;SDS011;60030;52.274;8.040;2023-03-17T07:51:32;5.13;;;2.57;;
71366;SDS011;60030;52.274;8.040;2023-03-17T07:53:59;3.97;;;2.30;;
71366;SDS011;60030;52.274;8.040;2023-03-17T07:56:30;3.83;;;2.50;;
71366;SDS011;60030;52.274;8.040;2023-03-17T07:58:57;3.40;;;2.40;;
71366;SDS011;60030;52.274;8.040;2023-03-17T08:01:25;5.10;;;2.07;;
71366;SDS011;60030;52.274;8.040;2023-03-17T08:03:53;4.13;;;2.03;;
71366;SDS011;60030;52.274;8.040;2023-03-17T08:06:22;2.93;;;2.17;;
71366;SDS011;60030;52.274;8.040;2023-03-17T08:08:50;2.77;;;2.20;;
71366;SDS011;60030;52.274;8.040;2023-03-17T08:11:18;3.67;;;2.70;;
71366;SDS011;60030;52.274;8.040;2023-03-17T08:13:46;6.50;;;2.83;;
71366;SDS011;60030;52.274;8.040;2023-03-17T08:16:14;2.83;;;2.40;;
71366;SDS011;60030;52.274;8.040;2023-03-17T08:18:41;3.10;;;2.30;;
71366;SDS011;60030;52.274;8.040;2023-03-17T08:21:08;2.77;;;2.10;;
71366;SDS011;60030;52.274;8.040;2023-03-17T08:23:36;3.70;;;1.83;;
71366;SDS011;60030;52.274;8.040;2023-03-17T08:26:03;2.37;;;1.80;;
71366;SDS011;60030;52.274;8.040;2023-03-17T08:28:31;3.10;;;2.33;;
71366;SDS011;60030;52.274;8.040;2023-03-17T08:31:05;2.97;;;2.10;;
71366;SDS011;60030;52.274;8.040;2023-03-17T08:33:33;4.63;;;1.83;;
71366;SDS011;60030;52.274;8.040;2023-03-17T08:36:02;5.23;;;2.33;;
71366;SDS011;60030;52.274;8.040;2023-03-17T08:38:30;5.10;;;2.47;;
71366;SDS011;60030;52.274;8.040;2023-03-17T08:41:00;3.30;;;2.10;;
71366;SDS011;60030;52.274;8.040;2023-03-17T08:43:28;6.53;;;2.80;;
71366;SDS011;60030;52.274;8.040;2023-03-17T08:45:59;4.27;;;2.17;;
71366;SDS011;60030;52.274;8.040;2023-03-17T08:48:28;3.77;;;2.23;;
71366;SDS011;60030;52.274;8.040;2023-03-17T08:50:56;3.07;;;2.00;;
71366;SDS011;60030;52.274;8.040;2023-03-17T08:53:23;4.83;;;2.17;;
71366;SDS011;60030;52.274;8.040;2023-03-17T08:55:53;4.63;;;2.20;;
71366;SDS011;60030;52.274;8.040;2023-03-17T08:58:23;4.63;;;2.03;;
71366;SDS011;60030;52.274;8.040;2023-03-17T09:00:50;3.10;;;2.03;;
71366;SDS011;60030;52.274;8.040;2023-03-17T09:03:18;2.10;;;1.90;;
71366;SDS011;60030;52.274;8.040;2023-03-17T09:05:46;3.40;;;1.80;;
71366;SDS011;60030;52.274;8.040;2023-03-17T09:08:14;3.97;;;1.93;;
71366;SDS011;60030;52.274;8.040;2023-03-17T09:10:41;2.73;;;1.90;;
71366;SDS011;60030;52.274;8.040;2023-03-17T09:13:08;4.13;;;2.00;;
71366;SDS011;60030;52.274;8.040;2023-03-17T09:15:37;3.77;;;1.80;;
71366;SDS011;60030;52.274;8.040;2023-03-17T09:18:04;2.20;;;1.87;;
71366;SDS011;60030;52.274;8.040;2023-03-17T09:20:32;5.77;;;2.00;;
71366;SDS011;60030;52.274;8.040;2023-03-17T09:22:59;4.97;;;2.40;;
71366;SDS011;60030;52.274;8.040;2023-03-17T09:25:30;4.57;;;2.33;;
71366;SDS011;60030;52.274;8.040;2023-03-17T09:27:59;3.53;;;1.77;;
71366;SDS011;60030;52.274;8.040;2023-03-17T09:30:26;6.00;;;2.10;;
71366;SDS011;60030;52.274;8.040;2023-03-17T09:32:54;4.73;;;2.00;;
71366;SDS011;60030;52.274;8.040;2023-03-17T09:35:22;3.70;;;2.17;;
71366;SDS011;60030;52.274;8.040;2023-03-17T09:37:49;2.73;;;2.07;;
71366;SDS011;60030;52.274;8.040;2023-03-17T09:40:17;4.00;;;2.07;;
71366;SDS011;60030;52.274;8.040;2023-03-17T09:42:49;6.10;;;2.53;;
71366;SDS011;60030;52.274;8.040;2023-03-17T09:45:26;4.80;;;2.47;;
71366;SDS011;60030;52.274;8.040;2023-03-17T09:48:01;6.57;;;2.83;;
71366;SDS011;60030;52.274;8.040;2023-03-17T09:50:43;6.03;;;2.30;;
71366;SDS011;60030;52.274;8.040;2023-03-17T09:53:15;4.17;;;2.03;;
71366;SDS011;60030;52.274;8.040;2023-03-17T09:55:46;4.33;;;2.23;;
71366;SDS011;60030;52.274;8.040;2023-03-17T09:58:15;3.47;;;2.33;;
71366;SDS011;60030;52.274;8.040;2023-03-17T10:00:47;3.13;;;2.20;;
71366;SDS011;60030;52.274;8.040;2023-03-17T10:03:23;3.33;;;2.43;;
71366;SDS011;60030;52.274;8.040;2023-03-17T10:05:51;3.97;;;2.30;;
71366;SDS011;60030;52.274;8.040;2023-03-17T10:08:20;4.70;;;2.50;;
71366;SDS011;60030;52.274;8.040;2023-03-17T10:10:53;4.10;;;2.40;;
71366;SDS011;60030;52.274;8.040;2023-03-17T10:13:28;4.97;;;2.23;;
71366;SDS011;60030;52.274;8.040;2023-03-17T10:16:07;4.33;;;2.97;;
71366;SDS011;60030;52.274;8.040;2023-03-17T10:18:40;4.57;;;2.90;;
71366;SDS011;60030;52.274;8.040;2023-03-17T10:21:12;6.47;;;2.70;;
71366;SDS011;60030;52.274;8.040;2023-03-17T10:23:43;3.83;;;2.50;;
71366;SDS011;60030;52.274;8.040;2023-03-17T10:26:15;6.27;;;2.50;;
71366;SDS011;60030;52.274;8.040;2023-03-17T10:28:50;4.33;;;2.77;;
71366;SDS011;60030;52.274;8.040;2023-03-17T10:31:20;4.67;;;2.93;;
71366;SDS011;60030;52.274;8.040;2023-03-17T10:33:54;7.97;;;2.93;;
71366;SDS011;60030;52.274;8.040;2023-03-17T10:36:33;4.67;;;2.93;;
71366;SDS011;60030;52.274;8.040;2023-03-17T10:39:03;5.57;;;2.90;;
71366;SDS011;60030;52.274;8.040;2023-03-17T10:41:32;5.73;;;2.70;;
71366;SDS011;60030;52.274;8.040;2023-03-17T10:44:06;4.33;;;2.80;;
71366;SDS011;60030;52.274;8.040;2023-03-17T10:46:34;7.27;;;2.80;;
71366;SDS011;60030;52.274;8.040;2023-03-17T10:49:07;4.40;;;2.50;;
71366;SDS011;60030;52.274;8.040;2023-03-17T10:51:41;5.27;;;2.87;;
71366;SDS011;60030;52.274;8.040;2023-03-17T10:54:14;5.33;;;3.00;;
71366;SDS011;60030;52.274;8.040;2023-03-17T10:56:44;4.97;;;2.80;;
71366;SDS011;60030;52.274;8.040;2023-03-17T10:59:16;5.87;;;3.10;;
71366;SDS011;60030;52.274;8.040;2023-03-17T11:01:46;5.77;;;2.87;;
71366;SDS011;60030;52.274;8.040;2023-03-17T11:04:26;4.73;;;2.90;;
71366;SDS011;60030;52.274;8.040;2023-03-17T11:06:56;4.47;;;2.60;;
71366;SDS011;60030;52.274;8.040;2023-03-17T11:09:25;4.60;;;2.87;;
71366;SDS011;60030;52.274;8.040;2023-03-17T11:12:00;6.67;;;3.10;;
71366;SDS011;60030;52.274;8.040;2023-03-17T11:14:29;5.87;;;3.03;;
71366;SDS011;60030;52.274;8.040;2023-03-17T11:16:57;3.37;;;2.73;;
71366;SDS011;60030;52.274;8.040;2023-03-17T11:19:29;5.17;;;2.47;;
71366;SDS011;60030;52.274;8.040;2023-03-17T11:22:07;5.00;;;3.17;;
71366;SDS011;60030;52.274;8.040;2023-03-17T11:24:38;7.03;;;2.93;;
71366;SDS011;60030;52.274;8.040;2023-03-17T11:27:16;5.47;;;2.60;;
71366;SDS011;60030;52.274;8.040;2023-03-17T11:29:52;6.43;;;2.70;;
71366;SDS011;60030;52.274;8.040;2023-03-17T11:32:31;4.47;;;3.13;;
71366;SDS011;60030;52.274;8.040;2023-03-17T11:35:27;3.20;;;2.77;;
71366;SDS011;60030;52.274;8.040;2023-03-17T11:38:11;7.57;;;3.10;;
71366;SDS011;60030;52.274;8.040;2023-03-17T11:40:56;5.50;;;2.60;;
71366;SDS011;60030;52.274;8.040;2023-03-17T11:43:42;3.87;;;2.57;;
71366;SDS011;60030;52.274;8.040;2023-03-17T11:46:24;4.83;;;2.53;;
71366;SDS011;60030;52.274;8.040;2023-03-17T11:48:56;3.80;;;2.60;;
71366;SDS011;60030;52.274;8.040;2023-03-17T11:51:34;3.57;;;2.27;;
71366;SDS011;60030;52.274;8.040;2023-03-17T11:54:10;4.87;;;2.70;;
71366;SDS011;60030;52.274;8.040;2023-03-17T11:56:45;4.87;;;2.80;;
71366;SDS011;60030;52.274;8.040;2023-03-17T11:59:17;3.90;;;2.30;;
71366;SDS011;60030;52.274;8.040;2023-03-17T12:01:53;3.33;;;2.23;;
71366;SDS011;60030;52.274;8.040;2023-03-17T12:04:27;4.90;;;2.67;;
71366;SDS011;60030;52.274;8.040;2023-03-17T12:07:00;3.13;;;2.37;;
71366;SDS011;60030;52.274;8.040;2023-03-17T12:09:35;4.03;;;2.50;;
71366;SDS011;60030;52.274;8.040;2023-03-17T12:12:06;4.20;;;3.07;;
71366;SDS011;60030;52.274;8.040;2023-03-17T12:14:37;4.22;;;2.65;;
71366;SDS011;60030;52.274;8.040;2023-03-17T12:17:09;5.30;;;2.70;;
71366;SDS011;60030;52.274;8.040;2023-03-17T12:19:43;6.22;;;2.97;;
71366;SDS011;60030;52.274;8.040;2023-03-17T12:22:26;3.88;;;2.95;;
71366;SDS011;60030;52.274;8.040;2023-03-17T12:25:02;3.85;;;2.75;;
71366;SDS011;60030;52.274;8.040;2023-03-17T12:27:31;3.53;;;2.55;;
71366;SDS011;60030;52.274;8.040;2023-03-17T12:30:05;4.13;;;2.58;;
71366;SDS011;60030;52.274;8.040;2023-03-17T12:32:43;5.53;;;2.70;;
71366;SDS011;60030;52.274;8.040;2023-03-17T12:35:21;2.90;;;2.50;;
71366;SDS011;60030;52.274;8.040;2023-03-17T12:37:53;5.40;;;2.92;;
71366;SDS011;60030;52.274;8.040;2023-03-17T12:40:24;5.20;;;3.25;;
71366;SDS011;60030;52.274;8.040;2023-03-17T12:43:00;3.47;;;2.42;;
71366;SDS011;60030;52.274;8.040;2023-03-17T12:45:47;5.55;;;2.92;;
71366;SDS011;60030;52.274;8.040;2023-03-17T12:51:32;5.10;;;2.70;;
71366;SDS011;60030;52.274;8.040;2023-03-17T12:54:29;4.70;;;3.05;;
71366;SDS011;60030;52.274;8.040;2023-03-17T12:56:59;4.72;;;3.08;;
71366;SDS011;60030;52.274;8.040;2023-03-17T12:59:30;3.65;;;2.75;;
71366;SDS011;60030;52.274;8.040;2023-03-17T13:02:07;4.53;;;3.20;;
71366;SDS011;60030;52.274;8.040;2023-03-17T13:04:46;4.50;;;3.30;;
71366;SDS011;60030;52.274;8.040;2023-03-17T13:07:18;4.03;;;2.67;;
71366;SDS011;60030;52.274;8.040;2023-03-17T13:10:06;6.43;;;3.00;;
71366;SDS011;60030;52.274;8.040;2023-03-17T13:15:52;5.53;;;2.95;;
71366;SDS011;60030;52.274;8.040;2023-03-17T13:21:13;6.93;;;3.88;;
71366;SDS011;60030;52.274;8.040;2023-03-17T13:23:42;7.75;;;3.55;;
71366;SDS011;60030;52.274;8.040;2023-03-17T13:26:13;6.28;;;3.28;;
71366;SDS011;60030;52.274;8.040;2023-03-17T13:28:44;8.25;;;4.88;;
71366;SDS011;60030;52.274;8.040;2023-03-17T13:31:14;7.03;;;4.93;;
71366;SDS011;60030;52.274;8.040;2023-03-17T13:34:01;7.38;;;5.13;;
71366;SDS011;60030;52.274;8.040;2023-03-17T13:36:38;5.85;;;3.40;;
71366;SDS011;60030;52.274;8.040;2023-03-17T13:39:33;6.45;;;3.47;;
71366;SDS011;60030;52.274;8.040;2023-03-17T13:42:28;7.70;;;3.22;;
71366;SDS011;60030;52.274;8.040;2023-03-17T13:45:15;4.93;;;2.92;;
71366;SDS011;60030;52.274;8.040;2023-03-17T13:47:51;5.07;;;2.92;;
71366;SDS011;60030;52.274;8.040;2023-03-17T13:50:21;6.25;;;2.95;;
71366;SDS011;60030;52.274;8.040;2023-03-17T13:52:53;5.25;;;3.15;;
71366;SDS011;60030;52.274;8.040;2023-03-17T13:58:34;6.68;;;3.47;;
71366;SDS011;60030;52.274;8.040;2023-03-17T14:01:16;10.70;;;3.40;;
71366;SDS011;60030;52.274;8.040;2023-03-17T14:03:46;5.35;;;2.92;;
71366;SDS011;60030;52.274;8.040;2023-03-17T14:06:16;4.53;;;2.70;;
71366;SDS011;60030;52.274;8.040;2023-03-17T14:08:46;4.53;;;2.75;;
71366;SDS011;60030;52.274;8.040;2023-03-17T14:11:18;4.70;;;2.53;;
71366;SDS011;60030;52.274;8.040;2023-03-17T14:13:54;5.18;;;2.95;;
71366;SDS011;60030;52.274;8.040;2023-03-17T14:16:42;3.03;;;2.30;;
71366;SDS011;60030;52.274;8.040;2023-03-17T14:19:15;6.07;;;2.58;;
71366;SDS011;60030;52.274;8.040;2023-03-17T14:21:46;4.68;;;2.50;;
71366;SDS011;60030;52.274;8.040;2023-03-17T14:24:17;4.18;;;2.55;;
71366;SDS011;60030;52.274;8.040;2023-03-17T14:26:49;14.43;;;2.80;;
71366;SDS011;60030;52.274;8.040;2023-03-17T14:29:20;7.18;;;2.60;;
71366;SDS011;60030;52.274;8.040;2023-03-17T14:31:58;6.72;;;2.50;;
71366;SDS011;60030;52.274;8.040;2023-03-17T14:34:29;5.03;;;2.60;;
71366;SDS011;60030;52.274;8.040;2023-03-17T14:36:59;3.35;;;2.13;;
71366;SDS011;60030;52.274;8.040;2023-03-17T14:39:27;4.47;;;2.50;;
71366;SDS011;60030;52.274;8.040;2023-03-17T14:41:58;5.35;;;2.63;;
71366;SDS011;60030;52.274;8.040;2023-03-17T14:44:28;4.30;;;2.20;;
71366;SDS011;60030;52.274;8.040;2023-03-17T14:47:02;4.70;;;2.45;;
71366;SDS011;60030;52.274;8.040;2023-03-17T14:49:31;1.98;;;1.80;;
71366;SDS011;60030;52.274;8.040;2023-03-17T14:51:58;4.63;;;2.58;;
71366;SDS011;60030;52.274;8.040;2023-03-17T14:54:28;4.90;;;2.70;;
71366;SDS011;60030;52.274;8.040;2023-03-17T14:56:59;4.45;;;2.10;;
71366;SDS011;60030;52.274;8.040;2023-03-17T14:59:32;4.03;;;2.50;;
71366;SDS011;60030;52.274;8.040;2023-03-17T15:02:00;4.22;;;2.40;;
71366;SDS011;60030;52.274;8.040;2023-03-17T15:04:29;4.38;;;2.20;;
71366;SDS011;60030;52.274;8.040;2023-03-17T15:06:58;3.67;;;2.50;;
71366;SDS011;60030;52.274;8.040;2023-03-17T15:09:27;5.05;;;2.60;;
71366;SDS011;60030;52.274;8.040;2023-03-17T15:11:59;3.67;;;1.90;;
71366;SDS011;60030;52.274;8.040;2023-03-17T15:14:32;6.55;;;1.90;;
71366;SDS011;60030;52.274;8.040;2023-03-17T15:17:00;4.32;;;2.10;;
71366;SDS011;60030;52.274;8.040;2023-03-17T15:19:30;4.85;;;2.30;;
71366;SDS011;60030;52.274;8.040;2023-03-17T15:22:03;3.60;;;2.17;;
71366;SDS011;60030;52.274;8.040;2023-03-17T15:24:50;4.07;;;2.35;;